Time;durP1;ratioP1;P1;durP2;ratioP2;P2;SDS_P1;SDS_P2;PMS_P1;PMS_P2;Temp;Humidity;BMP_temperature;BMP_pressure;BME280_temperature;BME280_humidity;BME280_pressure;Samples;Min_cycle;Max_cycle;Signal;HPM_P1;HPM_P2
2022/05/13 00:00:17;;;;;;;4.27;2.10;;;19.20;75.10;;;;;;5051975;28;20600;-77
2022/05/13 00:03:03;;;;;;;12.97;2.50;;;19.10;74.30;;;;;;5047816;28;20459;-78
2022/05/13 00:05:50;;;;;;;13.23;2.50;;;19.00;76.80;;;;;;5045689;28;21342;-77
2022/05/13 00:08:36;;;;;;;3.60;1.63;;;19.00;75.70;;;;;;5050700;28;20576;-77
2022/05/13 00:11:22;;;;;;;7.23;1.80;;;18.90;72.20;;;;;;5052664;28;20442;-77
2022/05/13 00:14:10;;;;;;;7.90;2.57;;;18.90;75.30;;;;;;5046572;28;20422;-77
2022/05/13 00:16:55;;;;;;;5.50;2.00;;;18.80;76.40;;;;;;5042497;28;20607;-77
2022/05/13 00:19:41;;;;;;;5.20;2.07;;;18.70;78.60;;;;;;5046150;28;21064;-77
2022/05/13 00:22:28;;;;;;;6.80;2.07;;;18.60;79.80;;;;;;5048318;28;20444;-77
2022/05/13 00:25:17;;;;;;;6.73;2.00;;;18.60;81.10;;;;;;5049439;28;20412;-76
2022/05/13 00:28:05;;;;;;;8.93;2.57;;;18.40;81.20;;;;;;5043014;28;20575;-77
2022/05/13 00:30:51;;;;;;;3.70;1.90;;;18.30;83.70;;;;;;5065232;28;20593;-77
2022/05/13 00:33:36;;;;;;;6.23;2.00;;;18.10;85.00;;;;;;5048515;28;20443;-77
2022/05/13 00:36:22;;;;;;;5.13;2.10;;;18.10;84.30;;;;;;5044874;28;20490;-77
2022/05/13 00:39:09;;;;;;;10.70;3.10;;;18.10;84.80;;;;;;5042590;28;20451;-77
2022/05/13 00:41:55;;;;;;;4.87;2.63;;;18.10;86.00;;;;;;5049217;28;20447;-77
2022/05/13 00:44:41;;;;;;;8.33;2.40;;;18.00;86.00;;;;;;5047013;28;20461;-77
2022/05/13 00:47:27;;;;;;;4.00;1.83;;;18.00;86.10;;;;;;5043752;28;20471;-77
2022/05/13 00:50:15;;;;;;;3.10;1.83;;;18.00;86.80;;;;;;5053292;28;20425;-77
2022/05/13 00:53:02;;;;;;;9.03;1.77;;;18.00;87.30;;;;;;5057125;28;20566;-78
2022/05/13 00:55:50;;;;;;;4.57;1.90;;;17.90;87.40;;;;;;5040241;28;20520;-77
2022/05/13 00:58:39;;;;;;;4.00;2.37;;;17.90;90.10;;;;;;5040627;28;20838;-77
2022/05/13 01:01:25;;;;;;;5.87;1.97;;;17.90;90.50;;;;;;5047173;28;20521;-76
2022/05/13 01:04:14;;;;;;;7.83;2.10;;;17.90;90.50;;;;;;5057391;28;20406;-76
2022/05/13 01:07:05;;;;;;;6.33;2.00;;;17.90;90.10;;;;;;5035954;28;20439;-76
2022/05/13 01:09:59;;;;;;;6.73;2.30;;;17.80;90.40;;;;;;5054073;28;20470;-76
2022/05/13 01:12:50;;;;;;;6.50;1.83;;;17.80;90.40;;;;;;5048303;28;20446;-76
2022/05/13 01:15:38;;;;;;;8.13;2.40;;;17.70;91.20;;;;;;5036309;28;20521;-76
2022/05/13 01:18:31;;;;;;;5.50;1.80;;;17.70;91.40;;;;;;5049544;28;20464;-76
2022/05/13 01:21:25;;;;;;;7.00;2.80;;;17.80;91.00;;;;;;5046601;28;20475;-76
2022/05/13 01:24:12;;;;;;;6.13;2.03;;;17.70;91.80;;;;;;5047526;28;21000;-76
2022/05/13 01:26:57;;;;;;;5.40;2.20;;;17.80;91.80;;;;;;5047672;28;20842;-76
2022/05/13 01:29:43;;;;;;;7.63;2.63;;;17.70;91.10;;;;;;5049884;28;20833;-76
2022/05/13 01:32:29;;;;;;;7.97;3.20;;;17.70;91.40;;;;;;5043031;28;20805;-76
2022/05/13 01:35:15;;;;;;;5.40;1.80;;;17.70;91.90;;;;;;5042938;28;20564;-76
2022/05/13 01:38:00;;;;;;;5.50;2.23;;;17.70;91.50;;;;;;5052057;28;21007;-76
2022/05/13 01:40:47;;;;;;;12.53;2.30;;;17.70;91.70;;;;;;5044740;28;20554;-76
2022/05/13 01:43:33;;;;;;;4.60;2.20;;;17.80;92.10;;;;;;5041121;28;20444;-76
2022/05/13 01:46:20;;;;;;;9.60;2.57;;;17.70;91.20;;;;;;5045569;28;20932;-76
2022/05/13 01:49:06;;;;;;;7.40;2.27;;;17.60;91.60;;;;;;5052378;28;20487;-76
2022/05/13 01:51:51;;;;;;;10.27;2.70;;;17.60;91.50;;;;;;5042280;28;20844;-76
2022/05/13 01:54:37;;;;;;;15.37;2.57;;;17.60;90.90;;;;;;5037741;28;20464;-76
2022/05/13 01:57:24;;;;;;;4.10;2.20;;;17.70;90.70;;;;;;5043132;28;20447;-76
2022/05/13 02:00:10;;;;;;;7.20;2.00;;;17.70;90.90;;;;;;5050127;28;20467;-76
2022/05/13 02:06:00;;;;;;;7.80;3.27;;;17.60;91.80;;;;;;5050810;28;20462;-76
2022/05/13 02:08:46;;;;;;;5.00;2.40;;;17.60;91.50;;;;;;5048531;28;20490;-76
2022/05/13 02:11:32;;;;;;;12.30;2.83;;;17.50;91.20;;;;;;5043728;28;20502;-76
2022/05/13 02:14:20;;;;;;;6.33;1.97;;;17.50;91.30;;;;;;5044016;28;20977;-76
2022/05/13 02:17:05;;;;;;;6.43;2.50;;;17.30;92.10;;;;;;5043277;28;20444;-76
2022/05/13 02:19:51;;;;;;;6.47;2.60;;;17.20;92.20;;;;;;5055312;28;20459;-76
2022/05/13 02:22:37;;;;;;;8.90;2.33;;;17.00;92.10;;;;;;5053653;28;20439;-76
2022/05/13 02:25:23;;;;;;;6.73;3.40;;;17.00;92.10;;;;;;5042553;28;20471;-76
2022/05/13 02:28:08;;;;;;;4.63;2.20;;;17.00;92.00;;;;;;5049556;28;20867;-76
2022/05/13 02:30:55;;;;;;;9.07;2.57;;;16.90;92.10;;;;;;5047508;28;20492;-76
2022/05/13 02:33:42;;;;;;;7.10;2.17;;;16.80;92.40;;;;;;5046178;28;20464;-76
2022/05/13 02:36:28;;;;;;;4.50;2.30;;;16.70;92.50;;;;;;5038716;28;20467;-76
2022/05/13 02:39:14;;;;;;;5.07;2.40;;;16.70;92.40;;;;;;5048696;28;20578;-76
2022/05/13 02:41:59;;;;;;;11.60;2.87;;;16.60;92.80;;;;;;5055065;28;20439;-76
2022/05/13 02:44:45;;;;;;;5.40;2.10;;;16.50;93.20;;;;;;5044163;28;20420;-76
2022/05/13 02:47:32;;;;;;;5.13;2.30;;;16.40;93.80;;;;;;5044001;28;20490;-76
2022/05/13 02:50:18;;;;;;;9.07;2.43;;;16.30;93.80;;;;;;5047634;28;20606;-76
2022/05/13 02:53:04;;;;;;;4.33;2.20;;;16.20;94.20;;;;;;5045207;28;20558;-76
2022/05/13 02:55:50;;;;;;;13.70;2.57;;;16.20;94.70;;;;;;5041118;28;20488;-76
2022/05/13 02:58:36;;;;;;;4.40;2.30;;;16.30;94.80;;;;;;5038917;28;20532;-76
2022/05/13 03:01:21;;;;;;;8.17;2.40;;;16.30;94.60;;;;;;5047217;28;20459;-76
2022/05/13 03:04:08;;;;;;;3.23;2.03;;;16.20;94.60;;;;;;5039431;28;20962;-76
2022/05/13 03:06:54;;;;;;;5.20;2.70;;;16.20;94.70;;;;;;5045649;28;20462;-76
2022/05/13 03:09:40;;;;;;;10.87;3.00;;;16.20;94.80;;;;;;5047519;28;20532;-76
2022/05/13 03:12:25;;;;;;;4.03;2.47;;;16.30;94.10;;;;;;5049511;28;20443;-76
2022/05/13 03:15:12;;;;;;;4.50;2.10;;;16.30;94.20;;;;;;5052643;28;20552;-76
2022/05/13 03:17:59;;;;;;;6.80;2.70;;;16.30;94.50;;;;;;5053766;28;20432;-76
2022/05/13 03:20:46;;;;;;;7.30;2.43;;;16.40;94.00;;;;;;5055172;28;20458;-76
2022/05/13 03:23:31;;;;;;;5.90;2.47;;;16.40;94.30;;;;;;5047470;28;20460;-76
2022/05/13 03:26:20;;;;;;;5.27;2.60;;;16.30;94.60;;;;;;5051374;28;20479;-76
2022/05/13 03:29:05;;;;;;;7.30;2.60;;;16.20;95.60;;;;;;5053697;28;20495;-76
2022/05/13 03:31:51;;;;;;;5.73;2.50;;;16.10;96.00;;;;;;5054277;28;20450;-76
2022/05/13 03:34:38;;;;;;;9.33;2.70;;;16.10;96.00;;;;;;5040119;28;20443;-76
2022/05/13 03:37:25;;;;;;;7.23;2.60;;;16.10;96.20;;;;;;5052045;28;20928;-76
2022/05/13 03:40:13;;;;;;;7.87;2.90;;;16.00;96.20;;;;;;5052315;28;20479;-76
2022/05/13 03:42:58;;;;;;;8.90;2.70;;;16.00;96.40;;;;;;5033609;28;20933;-76
2022/05/13 03:45:44;;;;;;;4.50;2.40;;;16.00;96.40;;;;;;5046289;28;20485;-76
2022/05/13 03:48:30;;;;;;;8.40;2.80;;;16.00;96.40;;;;;;5048740;28;20870;-76
2022/05/13 03:51:16;;;;;;;7.60;2.53;;;15.90;96.80;;;;;;5049514;28;20941;-76
2022/05/13 03:54:02;;;;;;;6.03;2.30;;;15.90;97.10;;;;;;5045654;28;20993;-76
2022/05/13 03:56:48;;;;;;;6.83;2.40;;;15.80;97.40;;;;;;5043578;28;20472;-76
2022/05/13 03:59:34;;;;;;;6.47;2.80;;;15.80;97.40;;;;;;5044255;28;20471;-76
2022/05/13 04:02:19;;;;;;;3.93;2.10;;;15.60;98.70;;;;;;5044164;28;20471;-76
2022/05/13 04:11:14;;;;;;;7.10;3.13;;;15.50;99.70;;;;;;5051674;28;20521;-76
2022/05/13 04:17:04;;;;;;;5.20;2.70;;;15.20;99.90;;;;;;5052880;28;20575;-76
2022/05/13 04:19:49;;;;;;;7.00;2.63;;;15.20;99.90;;;;;;5052863;28;20443;-76
2022/05/13 04:22:35;;;;;;;5.20;2.87;;;15.40;99.90;;;;;;5038777;28;20418;-76
2022/05/13 04:25:21;;;;;;;8.20;2.77;;;15.50;99.90;;;;;;5055688;28;20895;-76
2022/05/13 04:28:08;;;;;;;12.07;3.20;;;15.40;99.90;;;;;;5049889;28;20493;-76
2022/05/13 04:30:54;;;;;;;6.60;3.57;;;15.20;99.90;;;;;;5042052;28;20534;-76
2022/05/13 04:33:41;;;;;;;6.00;2.70;;;15.20;99.90;;;;;;5045601;28;20447;-76
2022/05/13 04:36:27;;;;;;;10.43;2.57;;;15.40;99.90;;;;;;5049470;28;20514;-76
2022/05/13 04:39:13;;;;;;;4.37;2.47;;;15.30;99.90;;;;;;5042319;28;20462;-76
2022/05/13 04:45:05;;;;;;;6.63;2.70;;;15.30;99.90;;;;;;5049616;28;20455;-76
2022/05/13 04:50:57;;;;;;;6.30;2.67;;;15.50;99.90;;;;;;5040645;28;20514;-76
2022/05/13 04:53:43;;;;;;;5.60;2.60;;;15.70;99.90;;;;;;5044241;28;20440;-75
2022/05/13 04:56:30;;;;;;;5.97;2.73;;;15.80;99.90;;;;;;5039575;28;20471;-76
2022/05/13 04:59:16;;;;;;;9.50;3.00;;;16.00;99.90;;;;;;5049679;28;20459;-76
2022/05/13 05:02:03;;;;;;;6.53;2.67;;;16.10;99.90;;;;;;5040791;28;20460;-76
2022/05/13 05:04:49;;;;;;;7.73;3.20;;;16.20;99.90;;;;;;5045625;28;20448;-76
2022/05/13 05:07:34;;;;;;;6.03;2.30;;;16.40;99.90;;;;;;5049143;28;20438;-76
2022/05/13 05:10:21;;;;;;;6.87;2.80;;;16.50;99.90;;;;;;5050327;28;20532;-76
2022/05/13 05:13:07;;;;;;;8.30;2.20;;;16.50;99.90;;;;;;5044604;28;21023;-76
2022/05/13 05:15:54;;;;;;;4.30;2.03;;;16.60;99.90;;;;;;5043976;28;20494;-76
2022/05/13 05:18:41;;;;;;;5.53;2.07;;;16.70;99.90;;;;;;5052296;28;20497;-76
2022/05/13 05:21:28;;;;;;;6.30;2.27;;;16.80;99.90;;;;;;5036240;28;20455;-76
2022/05/13 05:24:13;;;;;;;5.07;2.20;;;16.80;99.90;;;;;;5041160;28;20421;-76
2022/05/13 05:26:59;;;;;;;6.83;2.53;;;16.90;99.90;;;;;;5048324;28;20446;-76
2022/05/13 05:29:46;;;;;;;6.47;2.77;;;17.00;99.90;;;;;;5050361;28;20589;-76
2022/05/13 05:32:33;;;;;;;7.77;2.60;;;17.10;99.90;;;;;;5039172;28;20459;-76
2022/05/13 05:35:21;;;;;;;7.23;2.90;;;17.10;99.70;;;;;;5049174;28;20444;-76
2022/05/13 05:38:07;;;;;;;7.00;2.93;;;17.10;98.30;;;;;;5048071;28;20439;-76
2022/05/13 05:40:55;;;;;;;7.17;2.87;;;17.20;97.90;;;;;;5041971;28;20483;-76
2022/05/13 05:43:40;;;;;;;8.23;2.87;;;17.30;97.40;;;;;;5042288;28;20440;-76
2022/05/13 05:46:26;;;;;;;8.43;2.87;;;17.40;96.80;;;;;;5039730;28;20418;-76
2022/05/13 05:49:12;;;;;;;4.03;2.00;;;17.50;96.10;;;;;;5048128;28;20459;-76
2022/05/13 05:51:59;;;;;;;5.47;2.70;;;17.50;96.00;;;;;;5038193;28;20442;-76
2022/05/13 05:58:00;;;;;;;5.33;2.40;;;17.60;94.70;;;;;;5049538;28;20472;-76
2022/05/13 06:00:48;;;;;;;4.80;2.80;;;17.70;93.70;;;;;;5042923;28;20471;-76
2022/05/13 06:03:34;;;;;;;6.00;2.27;;;17.70;93.90;;;;;;5039758;28;20448;-76
2022/05/13 06:06:20;;;;;;;6.80;2.50;;;17.70;92.20;;;;;;5040936;28;20449;-76
2022/05/13 06:09:08;;;;;;;5.20;2.67;;;17.80;93.50;;;;;;5049211;28;21038;-76
2022/05/13 06:11:53;;;;;;;10.53;2.50;;;17.80;91.90;;;;;;5040908;28;20422;-76
2022/05/13 06:14:39;;;;;;;5.70;2.20;;;17.70;91.10;;;;;;5038113;28;20444;-76
2022/05/13 06:17:25;;;;;;;9.17;2.97;;;17.80;91.80;;;;;;5045322;28;21040;-76
2022/05/13 06:20:12;;;;;;;6.40;2.80;;;17.70;92.40;;;;;;5037997;28;20558;-76
2022/05/13 06:22:58;;;;;;;3.80;2.13;;;17.80;92.90;;;;;;5048589;28;20435;-76
2022/05/13 06:25:45;;;;;;;4.07;2.00;;;17.80;90.60;;;;;;5051308;28;20454;-76
2022/05/13 06:28:31;;;;;;;5.20;2.77;;;17.70;87.70;;;;;;5048155;28;20497;-76
2022/05/13 06:31:18;;;;;;;6.17;2.10;;;17.80;81.70;;;;;;5037516;28;20517;-76
2022/05/13 06:34:04;;;;;;;7.00;2.13;;;17.80;78.20;;;;;;5046806;28;20451;-78
2022/05/13 06:36:51;;;;;;;14.57;1.90;;;17.80;77.90;;;;;;5061183;28;20483;-78
2022/05/13 06:39:37;;;;;;;6.57;2.47;;;17.70;77.80;;;;;;5054668;28;20467;-77
2022/05/13 06:42:24;;;;;;;12.77;2.47;;;17.60;78.90;;;;;;5049022;28;20451;-77
2022/05/13 06:45:11;;;;;;;6.80;2.43;;;17.60;80.20;;;;;;5060448;28;20435;-77
2022/05/13 06:47:56;;;;;;;5.57;2.27;;;17.40;81.80;;;;;;5060206;28;20443;-77
2022/05/13 06:50:43;;;;;;;6.47;3.00;;;17.30;83.10;;;;;;5055706;28;20985;-78
2022/05/13 06:53:29;;;;;;;6.40;2.97;;;17.40;84.00;;;;;;5063656;28;20444;-77
2022/05/13 06:56:15;;;;;;;5.93;3.07;;;17.50;84.90;;;;;;5058452;28;20515;-77
2022/05/13 06:59:02;;;;;;;7.60;2.23;;;17.60;82.50;;;;;;5059018;28;20434;-78
2022/05/13 07:01:47;;;;;;;7.80;2.77;;;17.70;81.30;;;;;;5058112;28;20442;-77
2022/05/13 07:04:34;;;;;;;7.97;2.07;;;17.90;81.00;;;;;;5049117;28;20559;-77
2022/05/13 07:07:19;;;;;;;7.53;2.40;;;18.00;79.00;;;;;;5051141;28;20444;-76
2022/05/13 07:10:06;;;;;;;6.13;2.37;;;18.20;77.30;;;;;;5046721;28;20463;-77
2022/05/13 07:12:52;;;;;;;6.90;2.10;;;18.30;75.90;;;;;;5050939;28;20446;-77
2022/05/13 07:15:40;;;;;;;6.03;2.00;;;18.30;75.60;;;;;;5059832;28;20427;-76
2022/05/13 07:18:25;;;;;;;7.63;2.13;;;18.40;75.70;;;;;;5050726;28;20436;-77
2022/05/13 07:21:11;;;;;;;5.30;1.90;;;18.50;73.90;;;;;;5040729;28;21029;-77
2022/05/13 07:23:57;;;;;;;7.73;2.07;;;18.60;73.00;;;;;;5060941;28;20446;-77
2022/05/13 07:26:42;;;;;;;12.57;2.50;;;18.70;71.90;;;;;;5057187;28;20519;-77
2022/05/13 07:29:28;;;;;;;4.57;2.23;;;18.60;69.50;;;;;;5041113;28;20480;-77
2022/05/13 07:32:15;;;;;;;6.70;2.07;;;18.60;70.50;;;;;;5046025;28;20426;-75
2022/05/13 07:35:00;;;;;;;10.50;2.20;;;18.60;70.70;;;;;;5052241;28;20452;-77
2022/05/13 07:37:46;;;;;;;9.90;1.90;;;18.50;71.80;;;;;;5049332;28;20590;-76
2022/05/13 07:43:35;;;;;;;7.80;1.93;;;18.30;73.20;;;;;;5052005;28;20839;-76
2022/05/13 07:46:21;;;;;;;4.70;2.30;;;18.10;70.60;;;;;;5041748;28;20453;-77
2022/05/13 07:49:08;;;;;;;10.10;2.40;;;18.00;73.00;;;;;;5048672;28;20466;-77
2022/05/13 07:51:54;;;;;;;9.03;2.27;;;17.90;72.90;;;;;;5051512;28;20451;-77
2022/05/13 07:54:40;;;;;;;7.97;2.10;;;17.80;69.90;;;;;;5044797;28;20472;-77
2022/05/13 07:57:25;;;;;;;6.40;2.10;;;17.60;70.50;;;;;;5048744;28;20834;-77
2022/05/13 08:00:27;;;;;;;7.97;2.43;;;17.50;72.60;;;;;;5037417;28;20450;-77
2022/05/13 08:03:16;;;;;;;5.07;2.40;;;17.60;72.60;;;;;;5052476;28;20455;-77
2022/05/13 08:06:04;;;;;;;3.43;1.90;;;17.60;70.30;;;;;;5044052;28;20549;-77
2022/05/13 08:08:55;;;;;;;9.10;2.60;;;17.50;71.30;;;;;;5046212;28;20427;-77
2022/05/13 08:11:42;;;;;;;8.73;2.43;;;17.70;72.70;;;;;;5048097;28;20432;-77
2022/05/13 08:14:28;;;;;;;7.83;2.40;;;17.90;72.90;;;;;;5046313;28;20487;-78
2022/05/13 08:17:14;;;;;;;7.23;3.60;;;18.10;71.50;;;;;;5044105;28;20515;-77
2022/05/13 08:20:00;;;;;;;6.53;2.47;;;18.10;70.90;;;;;;5043581;28;20452;-78
2022/05/13 08:22:47;;;;;;;3.37;2.27;;;18.30;72.70;;;;;;5058959;28;20435;-78
2022/05/13 08:25:32;;;;;;;9.00;2.70;;;18.40;69.40;;;;;;5052916;28;20432;-78
2022/05/13 08:28:21;;;;;;;7.17;2.03;;;18.50;67.50;;;;;;5054544;28;20903;-77
2022/05/13 08:31:08;;;;;;;7.63;2.67;;;18.60;68.50;;;;;;5050553;28;20527;-78
2022/05/13 08:33:53;;;;;;;9.20;2.43;;;18.60;66.10;;;;;;5056215;28;20435;-77
2022/05/13 08:36:40;;;;;;;9.20;2.27;;;18.50;66.00;;;;;;5056056;28;20475;-77
2022/05/13 08:39:27;;;;;;;6.23;2.03;;;18.50;67.20;;;;;;5044647;28;20483;-77
2022/05/13 08:42:22;;;;;;;7.23;2.47;;;18.50;68.50;;;;;;5048523;28;20509;-78
2022/05/13 08:45:11;;;;;;;6.07;2.37;;;18.70;66.70;;;;;;5061908;28;20427;-78
2022/05/13 08:47:59;;;;;;;5.80;2.07;;;18.90;64.00;;;;;;5054829;28;20428;-77
2022/05/13 08:50:54;;;;;;;8.23;2.20;;;18.90;64.00;;;;;;5048975;28;21183;-78
2022/05/13 08:53:47;;;;;;;4.77;2.43;;;18.90;63.10;;;;;;5059717;28;20443;-78
2022/05/13 08:56:35;;;;;;;8.40;2.13;;;18.90;64.00;;;;;;5056815;28;20405;-78
2022/05/13 08:59:25;;;;;;;7.97;2.30;;;19.10;63.20;;;;;;5048215;28;20454;-78
2022/05/13 09:02:23;;;;;;;10.17;2.27;;;19.20;62.90;;;;;;5064949;28;20465;-78
2022/05/13 09:05:25;;;;;;;5.33;2.10;;;19.20;64.00;;;;;;5064887;28;20964;-78
2022/05/13 09:08:12;;;;;;;7.03;2.40;;;19.10;62.70;;;;;;5056145;28;20425;-79
2022/05/13 09:11:08;;;;;;;6.20;1.80;;;19.30;63.20;;;;;;5062692;28;20534;-79
2022/05/13 09:14:08;;;;;;;6.13;2.10;;;19.30;57.50;;;;;;5053729;28;20402;-78
2022/05/13 09:17:14;;;;;;;10.20;2.50;;;19.30;58.40;;;;;;5056962;28;20463;-78
2022/05/13 09:20:01;;;;;;;13.63;2.00;;;19.50;62.20;;;;;;5049942;28;20458;-78
2022/05/13 09:22:49;;;;;;;10.10;1.83;;;19.70;56.60;;;;;;5060961;28;20572;-78
2022/05/13 09:25:42;;;;;;;5.10;2.07;;;19.90;57.10;;;;;;5053247;28;20407;-78
2022/05/13 09:28:28;;;;;;;6.70;2.13;;;19.90;56.70;;;;;;5045270;28;20428;-77
2022/05/13 09:31:22;;;;;;;7.30;2.27;;;19.90;52.50;;;;;;5047212;28;20842;-78
2022/05/13 09:34:30;;;;;;;3.93;1.90;;;20.00;57.10;;;;;;5043852;28;20503;-77
2022/05/13 09:37:20;;;;;;;7.03;2.40;;;19.90;51.20;;;;;;5047397;28;21177;-77
2022/05/13 09:40:10;;;;;;;7.20;2.47;;;19.90;53.20;;;;;;5046996;28;20476;-78
2022/05/13 09:42:57;;;;;;;5.50;1.93;;;20.00;53.30;;;;;;5047462;28;20489;-77
2022/05/13 09:45:43;;;;;;;6.50;1.77;;;20.30;53.60;;;;;;5049417;28;20438;-77
2022/05/13 09:48:31;;;;;;;6.80;2.27;;;20.60;52.60;;;;;;5051727;28;20473;-78
2022/05/13 09:51:30;;;;;;;6.63;1.90;;;20.50;47.00;;;;;;5062220;28;20493;-78
2022/05/13 09:54:24;;;;;;;9.50;2.00;;;20.60;49.40;;;;;;5056477;28;20459;-78
2022/05/13 09:57:12;;;;;;;8.80;2.43;;;20.60;49.90;;;;;;5060075;28;20471;-78
2022/05/13 10:00:03;;;;;;;5.10;1.50;;;20.70;50.10;;;;;;5053243;28;20969;-78
2022/05/13 10:03:05;;;;;;;5.87;1.70;;;20.70;44.60;;;;;;5060387;28;20493;-78
2022/05/13 10:06:05;;;;;;;11.13;2.57;;;21.00;51.30;;;;;;5061060;28;20811;-78
2022/05/13 10:08:54;;;;;;;7.40;2.07;;;20.90;47.50;;;;;;5053335;28;20481;-79
2022/05/13 10:14:47;;;;;;;7.30;1.57;;;20.90;44.10;;;;;;5049021;28;20452;-79
2022/05/13 10:17:34;;;;;;;4.13;1.57;;;20.80;43.40;;;;;;5046173;28;20548;-79
2022/05/13 10:20:28;;;;;;;4.50;1.50;;;20.70;44.60;;;;;;5064437;28;20451;-79
2022/05/13 10:23:21;;;;;;;3.90;1.40;;;20.80;43.30;;;;;;5060780;28;21686;-79
2022/05/13 10:26:12;;;;;;;4.30;1.30;;;20.80;41.60;;;;;;5063683;28;20523;-79
2022/05/13 10:29:05;;;;;;;8.40;1.87;;;20.90;40.50;;;;;;5051193;28;20532;-79
2022/05/13 10:31:53;;;;;;;8.17;1.80;;;21.10;41.90;;;;;;5057425;28;20508;-80
2022/05/13 10:34:43;;;;;;;14.90;1.63;;;21.40;42.70;;;;;;5045732;28;20443;-78
2022/05/13 10:37:34;;;;;;;4.00;1.53;;;21.40;41.10;;;;;;5051666;28;20606;-78
2022/05/13 10:40:22;;;;;;;5.97;1.70;;;21.50;41.20;;;;;;5059736;28;20453;-79
2022/05/13 10:43:15;;;;;;;5.57;1.87;;;21.40;37.60;;;;;;5064160;28;20943;-79
2022/05/13 10:46:12;;;;;;;4.27;1.57;;;21.40;41.10;;;;;;5052336;28;20444;-78
2022/05/13 10:48:58;;;;;;;4.73;1.40;;;21.50;41.20;;;;;;5048288;28;20495;-78
2022/05/13 10:51:52;;;;;;;7.77;1.60;;;21.30;36.20;;;;;;5058181;28;20444;-79
2022/05/13 10:54:50;;;;;;;3.77;1.33;;;21.20;39.70;;;;;;5054777;28;20427;-79
2022/05/13 10:57:46;;;;;;;6.40;1.67;;;21.30;40.90;;;;;;5053253;28;20478;-78
2022/05/13 11:00:42;;;;;;;5.77;1.27;;;21.30;39.80;;;;;;5071813;28;20511;-79
2022/05/13 11:03:36;;;;;;;4.43;1.63;;;21.60;44.10;;;;;;5066735;28;20946;-79
2022/05/13 11:06:42;;;;;;;4.93;1.37;;;22.00;40.70;;;;;;5051070;28;20425;-79
2022/05/13 11:09:37;;;;;;;5.67;1.80;;;21.90;38.90;;;;;;5054370;28;20466;-78
2022/05/13 11:12:33;;;;;;;12.40;1.60;;;22.20;41.90;;;;;;5051038;28;20439;-79
2022/05/13 11:15:35;;;;;;;13.23;2.03;;;22.20;38.30;;;;;;5058479;28;20877;-79
2022/05/13 11:18:37;;;;;;;5.40;2.03;;;22.30;39.70;;;;;;5050734;28;20470;-79
2022/05/13 11:21:35;;;;;;;5.80;1.90;;;22.60;39.20;;;;;;5060228;28;21012;-79
2022/05/13 11:28:00;;;;;;;8.50;1.50;;;22.80;36.30;;;;;;5045878;28;20474;-79
2022/05/13 11:31:00;;;;;;;4.53;1.40;;;22.70;36.60;;;;;;5053472;28;20954;-79
2022/05/13 11:33:52;;;;;;;3.63;1.17;;;22.40;35.60;;;;;;5054377;28;20459;-79
2022/05/13 11:36:46;;;;;;;5.10;1.60;;;22.60;37.90;;;;;;5045509;28;20463;-78
2022/05/13 11:39:53;;;;;;;6.07;1.70;;;23.00;39.20;;;;;;5047699;28;20500;-78
2022/05/13 11:46:26;;;;;;;13.20;1.90;;;23.50;36.50;;;;;;5046400;28;20458;-79
2022/05/13 11:49:18;;;;;;;4.87;1.20;;;23.60;34.30;;;;;;5048285;28;20715;-78
2022/05/13 11:52:43;;;;;;;10.30;1.33;;;23.50;30.50;;;;;;5053550;28;20452;-78
2022/05/13 11:55:48;;;;;;;18.63;1.80;;;23.50;32.40;;;;;;5054495;28;20455;-76
2022/05/13 11:58:52;;;;;;;5.33;1.20;;;23.30;32.90;;;;;;5052240;28;20539;-78
2022/05/13 12:02:07;;;;;;;5.80;1.70;;;23.40;33.70;;;;;;5043344;28;20462;-77
2022/05/13 12:05:07;;;;;;;5.73;1.23;;;23.60;31.40;;;;;;5047687;28;20448;-76
2022/05/13 12:08:02;;;;;;;6.03;0.90;;;23.30;31.70;;;;;;5054271;28;20427;-78
2022/05/13 12:10:58;;;;;;;5.13;1.47;;;23.00;30.60;;;;;;5045363;28;20467;-77
2022/05/13 12:13:56;;;;;;;3.17;1.13;;;23.00;33.20;;;;;;5049370;28;20432;-76
2022/05/13 12:16:50;;;;;;;5.93;1.67;;;23.20;32.30;;;;;;5040210;28;20819;-75
2022/05/13 12:19:43;;;;;;;4.63;1.30;;;23.00;32.40;;;;;;5051007;28;20880;-77
2022/05/13 12:22:45;;;;;;;5.23;1.40;;;23.20;32.50;;;;;;5052964;28;20447;-77
2022/05/13 12:25:56;;;;;;;4.93;1.30;;;23.50;33.60;;;;;;5047183;28;20448;-77
2022/05/13 12:29:16;;;;;;;7.87;2.10;;;23.80;30.30;;;;;;5055019;28;20440;-75
2022/05/13 12:32:17;;;;;;;10.43;1.13;;;24.00;29.70;;;;;;5030609;28;20576;-77
2022/05/13 12:38:12;;;;;;;2.90;1.10;;;23.50;27.40;;;;;;5051849;28;20502;-78
2022/05/13 12:41:09;;;;;;;4.47;1.10;;;23.50;29.30;;;;;;5057287;28;20451;-77
2022/05/13 12:44:08;;;;;;;5.13;1.30;;;23.60;28.80;;;;;;5055171;28;20471;-78
2022/05/13 12:47:14;;;;;;;5.50;1.57;;;23.50;26.20;;;;;;5050251;28;20447;-78
2022/05/13 12:50:20;;;;;;;4.70;1.40;;;23.60;28.10;;;;;;5057431;28;20439;-77
2022/05/13 12:53:32;;;;;;;4.83;1.30;;;24.00;29.70;;;;;;5063376;28;20455;-76
2022/05/13 12:56:27;;;;;;;4.20;1.73;;;24.40;29.30;;;;;;5048521;28;20422;-79
2022/05/13 12:59:15;;;;;;;4.80;1.40;;;24.60;28.40;;;;;;5063648;28;20941;-79
2022/05/13 13:02:04;;;;;;;3.87;1.30;;;24.80;29.50;;;;;;5050592;28;20521;-78
2022/05/13 13:04:56;;;;;;;5.20;1.30;;;24.90;28.90;;;;;;5046113;28;20448;-78
2022/05/13 13:07:41;;;;;;;4.20;1.37;;;24.90;29.10;;;;;;5062460;28;20435;-75
2022/05/13 13:10:27;;;;;;;9.63;1.43;;;25.00;29.00;;;;;;5047930;28;20874;-77
2022/05/13 13:13:21;;;;;;;5.90;1.30;;;24.90;27.90;;;;;;5044678;28;20444;-77
2022/05/13 13:16:16;;;;;;;2.27;1.00;;;24.60;28.40;;;;;;5054305;28;20450;-78
2022/05/13 13:19:12;;;;;;;3.97;1.07;;;24.90;29.10;;;;;;5050915;28;20460;-78
2022/05/13 13:22:01;;;;;;;5.17;1.03;;;24.80;27.90;;;;;;5062513;28;20967;-78
2022/05/13 13:24:48;;;;;;;5.17;0.90;;;25.10;27.00;;;;;;5065488;28;20434;-79
2022/05/13 13:27:34;;;;;;;7.40;1.27;;;25.20;24.40;;;;;;5052599;28;20446;-78
2022/05/13 13:30:23;;;;;;;2.70;0.87;;;24.80;24.40;;;;;;5043795;28;20496;-79
2022/05/13 13:33:10;;;;;;;5.50;0.90;;;24.80;26.30;;;;;;5066594;28;20490;-78
2022/05/13 13:36:08;;;;;;;3.10;0.90;;;25.00;25.60;;;;;;5058425;28;21178;-79
2022/05/13 13:38:56;;;;;;;6.67;1.30;;;25.10;25.40;;;;;;5055176;28;20564;-78
2022/05/13 13:41:43;;;;;;;4.43;1.17;;;25.10;26.20;;;;;;5049033;28;20447;-78
2022/05/13 13:44:28;;;;;;;7.07;1.00;;;25.10;24.50;;;;;;5063649;28;20821;-78
2022/05/13 13:47:30;;;;;;;4.80;1.20;;;24.90;26.10;;;;;;5056602;28;20504;-79
2022/05/13 13:50:21;;;;;;;5.53;2.17;;;24.80;27.80;;;;;;5045965;28;20586;-78
2022/05/13 13:53:07;;;;;;;5.10;0.80;;;25.00;27.30;;;;;;5049237;28;20467;-78
2022/05/13 13:55:53;;;;;;;3.70;1.37;;;25.40;27.10;;;;;;5053538;28;20436;-78
2022/05/13 13:59:05;;;;;;;5.20;1.47;;;25.20;24.70;;;;;;5050888;28;20598;-78
2022/05/13 14:01:54;;;;;;;2.93;1.10;;;25.10;26.10;;;;;;5054985;28;20518;-78
2022/05/13 14:04:49;;;;;;;3.00;0.93;;;25.30;26.90;;;;;;5050201;28;20467;-78
2022/05/13 14:07:39;;;;;;;3.93;1.07;;;25.60;25.30;;;;;;5056616;28;20858;-78
2022/05/13 14:10:29;;;;;;;3.17;0.83;;;25.50;25.50;;;;;;5051539;28;20542;-78
2022/05/13 14:13:15;;;;;;;8.20;0.90;;;25.70;26.40;;;;;;5054244;28;20456;-78
2022/05/13 14:16:05;;;;;;;6.70;0.97;;;25.60;25.80;;;;;;5061085;28;20438;-78
2022/05/13 14:18:53;;;;;;;4.23;0.80;;;25.30;25.40;;;;;;5053486;28;20467;-78
2022/05/13 14:21:48;;;;;;;5.03;1.37;;;25.40;25.00;;;;;;5058911;28;20442;-78
2022/05/13 14:24:36;;;;;;;8.20;1.43;;;25.20;24.20;;;;;;5049515;28;20439;-78
2022/05/13 14:27:25;;;;;;;3.50;1.43;;;25.20;26.00;;;;;;5054188;28;20554;-78
2022/05/13 14:30:13;;;;;;;4.20;1.27;;;25.20;25.10;;;;;;5049034;28;20513;-78
2022/05/13 14:33:00;;;;;;;4.70;1.43;;;25.10;25.20;;;;;;5051517;28;20467;-79
2022/05/13 14:35:46;;;;;;;3.20;1.00;;;25.20;25.10;;;;;;5055213;28;20447;-81
2022/05/13 14:41:51;;;;;;;7.13;1.17;;;25.10;24.90;;;;;;5056809;28;20430;-80
2022/05/13 14:44:39;;;;;;;4.47;1.10;;;24.80;23.60;;;;;;5045818;28;20541;-81
2022/05/13 14:47:36;;;;;;;5.53;1.37;;;24.60;25.50;;;;;;5048771;28;20455;-79
2022/05/13 14:50:33;;;;;;;17.17;2.70;;;24.40;25.20;;;;;;5047701;28;20582;-79
2022/05/13 14:53:20;;;;;;;3.60;1.33;;;24.50;24.20;;;;;;5052521;28;20827;-77
2022/05/13 14:56:14;;;;;;;4.70;1.80;;;24.60;27.00;;;;;;5050991;28;20455;-78
2022/05/13 14:59:02;;;;;;;7.20;1.10;;;24.60;24.50;;;;;;5043571;28;20567;-78
2022/05/13 15:01:48;;;;;;;7.50;1.30;;;24.80;26.10;;;;;;5042622;28;20459;-78
2022/05/13 15:04:38;;;;;;;4.40;1.00;;;25.00;26.00;;;;;;5046953;28;20577;-79
2022/05/13 15:07:37;;;;;;;4.30;1.27;;;25.00;25.20;;;;;;5052368;28;20436;-78
2022/05/13 15:10:24;;;;;;;3.17;1.03;;;25.20;25.60;;;;;;5050839;28;20972;-77
2022/05/13 15:13:11;;;;;;;4.33;1.10;;;25.30;24.00;;;;;;5065693;28;20518;-78
2022/05/13 15:15:57;;;;;;;2.43;0.90;;;25.40;25.10;;;;;;5066878;28;20446;-78
2022/05/13 15:18:44;;;;;;;5.53;1.53;;;25.30;25.00;;;;;;5046826;28;20472;-77
2022/05/13 15:21:30;;;;;;;4.90;1.50;;;25.30;24.10;;;;;;5054569;28;20430;-79